createdAt,value
2023-03-05T00:01:33.364Z,13.47
2023-03-05T00:04:05.224Z,13.67
2023-03-05T00:06:34.306Z,13.90
2023-03-05T00:09:03.556Z,13.67
2023-03-05T00:11:33.773Z,14.63
2023-03-05T00:14:04.714Z,15.20
2023-03-05T00:16:32.978Z,14.53
2023-03-05T00:19:02.873Z,14.83
2023-03-05T00:21:33.504Z,15.63
2023-03-05T00:24:02.910Z,15.63
2023-03-05T00:26:34.574Z,15.20
2023-03-05T00:29:02.993Z,13.97
2023-03-05T00:31:32.256Z,15.23
2023-03-05T00:34:03.654Z,14.33
2023-03-05T00:36:32.614Z,15.10
2023-03-05T00:39:01.551Z,14.17
2023-03-05T00:41:29.749Z,15.03
2023-03-05T00:43:58.044Z,14.80
2023-03-05T00:46:27.666Z,14.03
2023-03-05T00:48:56.907Z,14.10
2023-03-05T00:51:26.730Z,12.77
2023-03-05T00:53:54.964Z,14.17
2023-03-05T00:56:23.335Z,15.17
2023-03-05T00:58:53.347Z,14.63
2023-03-05T01:01:21.621Z,14.47
2023-03-05T01:03:49.836Z,13.87
2023-03-05T01:06:18.508Z,14.57
2023-03-05T01:08:48.151Z,14.07
2023-03-05T01:11:16.363Z,14.27
2023-03-05T01:13:44.578Z,15.03
2023-03-05T01:16:12.867Z,13.53
2023-03-05T01:18:41.529Z,13.40
2023-03-05T01:21:10.143Z,12.97
2023-03-05T01:23:38.501Z,14.10
2023-03-05T01:26:08.670Z,15.73
2023-03-05T01:28:38.316Z,14.30
2023-03-05T01:31:09.870Z,14.87
2023-03-05T01:33:39.064Z,13.77
2023-03-05T01:36:14.979Z,14.57
2023-03-05T01:38:43.872Z,14.33
2023-03-05T01:41:15.038Z,14.13
2023-03-05T01:43:44.284Z,13.27
2023-03-05T01:46:35.809Z,13.93
2023-03-05T01:49:09.891Z,13.70
2023-03-05T01:51:42.216Z,14.40
2023-03-05T01:54:13.046Z,13.47
2023-03-05T01:56:44.006Z,13.30
2023-03-05T01:59:13.307Z,14.13
2023-03-05T02:01:46.200Z,14.67
2023-03-05T02:04:17.839Z,14.10
2023-03-05T02:06:46.706Z,14.13
2023-03-05T02:09:15.255Z,13.13
2023-03-05T02:11:45.064Z,14.93
2023-03-05T02:14:13.298Z,12.80
2023-03-05T02:16:42.493Z,14.63
2023-03-05T02:19:13.565Z,13.30
2023-03-05T02:21:45.793Z,13.93
2023-03-05T02:24:15.130Z,13.57
2023-03-05T02:26:45.031Z,13.20
2023-03-05T02:29:18.664Z,12.80
2023-03-05T02:31:47.254Z,14.57
2023-03-05T02:34:15.897Z,13.10
2023-03-05T02:36:45.399Z,12.80
2023-03-05T02:39:14.093Z,13.40
2023-03-05T02:41:42.202Z,12.70
2023-03-05T02:44:10.333Z,13.00
2023-03-05T02:46:38.531Z,13.50
2023-03-05T02:49:06.622Z,13.73
2023-03-05T02:51:34.762Z,12.53
2023-03-05T02:54:04.494Z,12.00
2023-03-05T02:56:32.928Z,11.77
2023-03-05T02:59:02.615Z,12.93
2023-03-05T03:01:30.853Z,13.00
2023-03-05T03:03:59.353Z,12.40
2023-03-05T03:06:27.627Z,11.90
2023-03-05T03:08:55.794Z,12.90
2023-03-05T03:11:25.313Z,11.97
2023-03-05T03:13:53.558Z,11.70
2023-03-05T03:16:22.060Z,12.97
2023-03-05T03:18:50.336Z,12.33
2023-03-05T03:21:20.116Z,12.10
2023-03-05T03:23:48.329Z,12.10
2023-03-05T03:26:16.798Z,13.10
2023-03-05T03:28:46.924Z,12.03
2023-03-05T03:31:15.203Z,12.27
2023-03-05T03:33:43.330Z,11.73
2023-03-05T03:36:11.898Z,11.93
2023-03-05T03:38:40.066Z,11.80
2023-03-05T03:41:08.963Z,12.23
2023-03-05T03:43:37.171Z,11.53
2023-03-05T03:46:08.544Z,12.70
2023-03-05T03:48:37.135Z,12.00
2023-03-05T03:51:07.222Z,12.57
2023-03-05T03:53:35.913Z,12.40
2023-03-05T03:56:04.584Z,11.93
2023-03-05T03:58:32.747Z,11.93
2023-03-05T04:01:00.952Z,12.63
2023-03-05T04:03:30.463Z,10.60
2023-03-05T04:05:58.796Z,12.03
2023-03-05T04:08:26.935Z,10.50
2023-03-05T04:10:55.031Z,11.47
2023-03-05T04:13:23.143Z,12.17
2023-03-05T04:15:51.370Z,10.97
2023-03-05T04:18:19.520Z,12.53
2023-03-05T04:20:49.335Z,11.50
2023-03-05T04:23:17.994Z,11.80
2023-03-05T04:25:46.118Z,12.27
2023-03-05T04:28:14.279Z,11.90
2023-03-05T04:30:42.502Z,11.87
2023-03-05T04:33:10.621Z,11.80
2023-03-05T04:35:38.737Z,12.93
2023-03-05T04:38:08.685Z,11.07
2023-03-05T04:40:36.825Z,12.37
2023-03-05T04:43:05.224Z,12.77
2023-03-05T04:45:33.486Z,12.07
2023-03-05T04:48:02.041Z,11.90
2023-03-05T04:50:30.134Z,12.30
2023-03-05T04:52:58.320Z,12.40
2023-03-05T04:55:28.792Z,13.30
2023-03-05T04:57:56.893Z,12.27
2023-03-05T05:00:25.428Z,12.97
2023-03-05T05:02:54.286Z,11.77
2023-03-05T05:05:24.914Z,12.50
2023-03-05T05:07:56.329Z,13.03
2023-03-05T05:10:25.393Z,14.03
2023-03-05T05:12:55.225Z,13.47
2023-03-05T05:15:23.392Z,12.53
2023-03-05T05:17:52.631Z,12.73
2023-03-05T05:20:20.886Z,14.30
2023-03-05T05:22:49.016Z,12.77
2023-03-05T05:25:17.231Z,13.27
2023-03-05T05:27:45.455Z,13.30
2023-03-05T05:30:15.428Z,12.73
2023-03-05T05:32:43.597Z,13.30
2023-03-05T05:35:12.383Z,13.30
2023-03-05T05:37:40.486Z,14.10
2023-03-05T05:40:10.139Z,13.43
2023-03-05T05:42:38.578Z,12.03
2023-03-05T05:45:07.858Z,12.30
2023-03-05T05:47:37.345Z,12.53
2023-03-05T05:50:07.893Z,11.97
2023-03-05T05:52:36.009Z,12.07
2023-03-05T05:55:04.537Z,12.97
2023-03-05T05:57:32.671Z,12.13
2023-03-05T06:00:00.831Z,12.33
2023-03-05T06:02:28.940Z,11.80
2023-03-05T06:04:58.486Z,13.83
2023-03-05T06:07:26.601Z,13.60
2023-03-05T06:09:54.705Z,13.30
2023-03-05T06:12:22.820Z,12.10
2023-03-05T06:14:50.928Z,11.50
2023-03-05T06:17:29.837Z,11.77
2023-03-05T06:19:59.694Z,11.37
2023-03-05T06:22:28.271Z,12.53
2023-03-05T06:24:56.529Z,11.33
2023-03-05T06:27:24.649Z,12.07
2023-03-05T06:29:54.418Z,11.47
2023-03-05T06:32:22.609Z,12.73
2023-03-05T06:34:50.827Z,10.43
2023-03-05T06:37:20.423Z,11.80
2023-03-05T06:39:48.780Z,11.13
2023-03-05T06:42:19.396Z,11.97
2023-03-05T06:44:48.434Z,12.63
2023-03-05T06:47:16.751Z,11.73
2023-03-05T06:49:44.963Z,10.60
2023-03-05T06:52:13.161Z,10.77
2023-03-05T06:54:42.846Z,11.47
2023-03-05T06:57:11.663Z,10.87
2023-03-05T06:59:39.886Z,11.33
2023-03-05T07:02:10.179Z,11.10
2023-03-05T07:04:38.432Z,10.80
2023-03-05T07:07:06.648Z,10.97
2023-03-05T07:09:34.769Z,9.80
2023-03-05T07:12:04.386Z,10.90
2023-03-05T07:14:32.539Z,10.30
2023-03-05T07:17:00.672Z,11.40
2023-03-05T07:19:28.968Z,10.90
2023-03-05T07:21:57.099Z,11.50
2023-03-05T07:24:29.849Z,10.70
2023-03-05T07:26:58.429Z,10.87
2023-03-05T07:29:29.199Z,11.87
2023-03-05T07:31:57.492Z,13.07
2023-03-05T07:34:27.208Z,14.47
2023-03-05T07:36:55.646Z,14.20
2023-03-05T07:39:23.817Z,13.07
2023-03-05T07:41:52.694Z,11.97
2023-03-05T07:44:30.276Z,10.97
2023-03-05T07:46:58.433Z,11.27
2023-03-05T07:49:26.547Z,11.20
2023-03-05T07:51:54.633Z,11.10
2023-03-05T07:54:22.725Z,11.57
2023-03-05T07:56:50.832Z,10.73
2023-03-05T07:59:19.000Z,11.37
2023-03-05T08:01:48.541Z,10.97
2023-03-05T08:04:17.162Z,10.40
2023-03-05T08:06:47.003Z,10.43
2023-03-05T08:09:15.187Z,10.53
2023-03-05T08:11:43.584Z,9.93
2023-03-05T08:14:13.450Z,10.83
2023-03-05T08:16:41.708Z,10.77
2023-03-05T08:19:11.992Z,10.60
2023-03-05T08:21:40.144Z,10.95
2023-03-05T08:24:10.125Z,11.40
2023-03-05T08:26:39.615Z,10.15
2023-03-05T08:29:09.401Z,11.18
2023-03-05T08:31:38.845Z,10.50
2023-03-05T08:34:07.548Z,10.50
2023-03-05T08:36:37.178Z,11.15
2023-03-05T08:39:06.826Z,10.90
2023-03-05T08:41:35.117Z,10.57
2023-03-05T08:44:03.960Z,11.43
2023-03-05T08:46:32.149Z,11.00
2023-03-05T08:49:00.542Z,10.43
2023-03-05T08:51:29.169Z,11.98
2023-03-05T08:53:59.998Z,10.93
2023-03-05T08:56:31.231Z,11.10
2023-03-05T08:58:59.422Z,10.57
2023-03-05T09:01:27.958Z,11.45
2023-03-05T09:03:56.256Z,11.13
2023-03-05T09:06:27.796Z,11.02
2023-03-05T09:08:56.090Z,10.85
2023-03-05T09:11:25.673Z,10.75
2023-03-05T09:13:53.907Z,10.57
2023-03-05T09:16:22.249Z,10.65
2023-03-05T09:18:50.452Z,11.57
2023-03-05T09:21:19.279Z,11.18
2023-03-05T09:23:48.235Z,11.20
2023-03-05T09:26:19.386Z,10.07
2023-03-05T09:28:49.713Z,10.88
2023-03-05T09:31:18.821Z,11.07
2023-03-05T09:33:48.776Z,12.05
2023-03-05T09:36:22.917Z,11.07
2023-03-05T09:38:53.726Z,11.02
2023-03-05T09:41:32.011Z,11.43
2023-03-05T09:44:14.180Z,11.15
2023-03-05T09:46:53.579Z,11.85
2023-03-05T09:49:32.119Z,10.38
2023-03-05T09:52:07.463Z,11.25
2023-03-05T09:54:41.609Z,10.10
2023-03-05T09:57:18.659Z,10.82
2023-03-05T09:59:51.634Z,10.55
2023-03-05T10:02:23.957Z,11.30
2023-03-05T10:04:59.139Z,11.07
2023-03-05T10:07:31.558Z,10.43
2023-03-05T10:10:01.910Z,11.13
2023-03-05T10:12:42.807Z,10.55
2023-03-05T10:15:16.370Z,10.85
2023-03-05T10:18:10.212Z,11.63
2023-03-05T10:20:48.172Z,11.10
2023-03-05T10:23:27.588Z,10.85
2023-03-05T10:26:05.446Z,10.80
2023-03-05T10:28:44.719Z,10.65
2023-03-05T10:31:33.851Z,10.95
2023-03-05T10:34:24.015Z,10.73
2023-03-05T10:37:07.420Z,10.55
2023-03-05T10:39:53.194Z,10.40
2023-03-05T10:42:31.280Z,10.23
2023-03-05T10:45:01.397Z,9.57
2023-03-05T10:47:38.991Z,10.27
2023-03-05T10:50:17.769Z,10.75
2023-03-05T10:52:51.765Z,11.10
2023-03-05T10:55:23.723Z,10.70
2023-03-05T10:57:53.384Z,11.15
2023-03-05T11:00:23.943Z,11.23
2023-03-05T11:03:00.105Z,10.65
2023-03-05T11:05:42.608Z,10.45
2023-03-05T11:08:33.016Z,10.25
2023-03-05T11:11:16.662Z,10.73
2023-03-05T11:13:58.433Z,11.20
2023-03-05T11:16:28.601Z,10.18
2023-03-05T11:19:22.477Z,11.25
2023-03-05T11:22:11.251Z,11.90
2023-03-05T11:24:41.568Z,10.63
2023-03-05T11:27:26.872Z,11.68
2023-03-05T11:29:56.206Z,11.07
2023-03-05T11:32:26.292Z,11.02
2023-03-05T11:34:58.427Z,10.13
2023-03-05T11:37:31.516Z,9.80
2023-03-05T11:40:23.721Z,10.38
2023-03-05T11:42:57.174Z,9.93
2023-03-05T11:45:27.853Z,10.30
2023-03-05T11:48:00.275Z,9.50
2023-03-05T11:50:32.684Z,10.30
2023-03-05T11:53:07.441Z,10.40
2023-03-05T11:55:41.582Z,9.93
2023-03-05T11:58:31.177Z,10.45
2023-03-05T12:01:01.184Z,10.75
2023-03-05T12:03:34.749Z,9.65
2023-03-05T12:06:12.172Z,9.48
2023-03-05T12:08:46.257Z,9.85
2023-03-05T12:11:20.480Z,10.48
2023-03-05T12:13:53.810Z,9.55
2023-03-05T12:16:29.923Z,10.70
2023-03-05T12:19:10.773Z,9.98
2023-03-05T12:21:43.338Z,9.43
2023-03-05T12:24:36.726Z,9.90
2023-03-05T12:27:11.732Z,10.55
2023-03-05T12:29:43.125Z,10.15
2023-03-05T12:33:03.863Z,9.48
2023-03-05T12:35:37.890Z,9.98
2023-03-05T12:38:26.871Z,9.63
2023-03-05T12:41:40.880Z,9.65
2023-03-05T12:44:24.228Z,10.55
2023-03-05T12:47:17.915Z,10.77
2023-03-05T12:49:49.570Z,9.30
2023-03-05T12:52:32.034Z,9.25
2023-03-05T12:55:21.559Z,9.68
2023-03-05T12:57:56.017Z,9.85
2023-03-05T13:00:27.520Z,8.88
2023-03-05T13:03:00.883Z,10.07
2023-03-05T13:05:33.887Z,9.10
2023-03-05T13:08:16.152Z,9.43
2023-03-05T13:10:55.267Z,8.90
2023-03-05T13:13:27.262Z,9.70
2023-03-05T13:15:56.530Z,9.10
2023-03-05T13:18:28.131Z,10.50
2023-03-05T13:21:07.911Z,9.93
2023-03-05T13:23:37.332Z,8.95
2023-03-05T13:26:15.742Z,9.82
2023-03-05T13:28:46.011Z,9.60
2023-03-05T13:31:18.516Z,8.73
2023-03-05T13:33:56.427Z,8.48
2023-03-05T13:36:28.395Z,9.25
2023-03-05T13:38:57.740Z,9.75
2023-03-05T13:41:29.937Z,9.20
2023-03-05T13:44:01.012Z,8.98
2023-03-05T13:46:33.091Z,8.68
2023-03-05T13:49:23.751Z,9.52
2023-03-05T13:51:55.940Z,9.18
2023-03-05T13:54:29.058Z,9.40
2023-03-05T13:57:02.267Z,9.25
2023-03-05T13:59:34.459Z,9.02
2023-03-05T14:02:18.835Z,8.95
2023-03-05T14:04:49.673Z,7.95
2023-03-05T14:07:32.131Z,8.75
2023-03-05T14:10:03.805Z,9.38
2023-03-05T14:12:37.218Z,8.82
2023-03-05T14:15:20.941Z,8.75
2023-03-05T14:17:49.817Z,8.30
2023-03-05T14:20:29.144Z,9.73
2023-03-05T14:23:00.729Z,9.18
2023-03-05T14:25:36.852Z,9.77
2023-03-05T14:28:22.365Z,9.25
2023-03-05T14:30:54.665Z,9.00
2023-03-05T14:33:26.070Z,8.93
2023-03-05T14:35:55.664Z,8.63
2023-03-05T14:38:28.377Z,8.73
2023-03-05T14:40:58.054Z,8.70
2023-03-05T14:43:30.234Z,8.85
2023-03-05T14:45:59.669Z,7.65
2023-03-05T14:48:29.717Z,8.43
2023-03-05T14:51:01.358Z,9.05
2023-03-05T14:53:37.363Z,9.13
2023-03-05T14:56:18.104Z,8.50
2023-03-05T14:58:49.152Z,9.05
2023-03-05T15:01:20.277Z,9.32
2023-03-05T15:03:50.318Z,10.23
2023-03-05T15:06:26.500Z,10.05
2023-03-05T15:08:56.158Z,10.65
2023-03-05T15:11:28.638Z,9.50
2023-03-05T15:13:59.517Z,9.97
2023-03-05T15:16:30.479Z,11.10
2023-03-05T15:19:00.873Z,9.87
2023-03-05T15:21:30.166Z,9.10
2023-03-05T15:23:59.819Z,9.63
2023-03-05T15:26:29.751Z,9.43
2023-03-05T15:29:00.581Z,9.73
2023-03-05T15:31:31.682Z,10.03
2023-03-05T15:34:00.788Z,9.57
2023-03-05T15:36:31.192Z,9.87
2023-03-05T15:39:03.285Z,10.43
2023-03-05T15:41:32.878Z,9.70
2023-03-05T15:44:04.634Z,10.13
2023-03-05T15:46:36.247Z,9.80
2023-03-05T15:49:06.418Z,10.40
2023-03-05T15:51:34.954Z,9.30
2023-03-05T15:54:04.943Z,9.63
2023-03-05T15:56:35.125Z,9.80
2023-03-05T15:59:06.695Z,9.80
2023-03-05T16:01:36.148Z,8.87
2023-03-05T16:04:05.659Z,10.97
2023-03-05T16:06:39.081Z,10.27
2023-03-05T16:09:13.258Z,9.23
2023-03-05T16:11:48.707Z,9.90
2023-03-05T16:14:24.277Z,9.80
2023-03-05T16:16:57.647Z,10.13
2023-03-05T16:19:30.394Z,10.10
2023-03-05T16:22:00.228Z,10.20
2023-03-05T16:24:34.697Z,9.63
2023-03-05T16:27:05.394Z,10.03
2023-03-05T16:29:39.382Z,10.47
2023-03-05T16:32:09.472Z,10.43
2023-03-05T16:34:40.687Z,10.00
2023-03-05T16:37:10.873Z,9.57
2023-03-05T16:39:41.510Z,10.17
2023-03-05T16:42:11.574Z,11.10
2023-03-05T16:44:43.486Z,10.07
2023-03-05T16:47:14.163Z,10.47
2023-03-05T16:49:44.183Z,10.57
2023-03-05T16:52:19.167Z,9.90
2023-03-05T16:54:49.703Z,11.30
2023-03-05T16:57:20.037Z,10.57
2023-03-05T16:59:51.961Z,10.80
2023-03-05T17:02:22.492Z,10.57
2023-03-05T17:04:53.272Z,11.80
2023-03-05T17:07:23.447Z,12.40
2023-03-05T17:09:53.825Z,10.97
2023-03-05T17:12:24.005Z,12.07
2023-03-05T17:14:55.296Z,12.30
2023-03-05T17:17:25.136Z,12.87
2023-03-05T17:19:54.811Z,13.47
2023-03-05T17:22:25.750Z,12.37
2023-03-05T17:24:55.095Z,14.87
2023-03-05T17:27:27.248Z,13.40
2023-03-05T17:30:00.563Z,13.87
2023-03-05T17:32:30.802Z,13.73
2023-03-05T17:35:10.993Z,14.30
2023-03-05T17:37:40.728Z,15.30
2023-03-05T17:40:12.933Z,17.27
2023-03-05T17:42:42.741Z,14.20
2023-03-05T17:45:15.431Z,14.87
2023-03-05T17:47:47.911Z,15.60
2023-03-05T17:50:21.449Z,15.40
2023-03-05T17:52:53.782Z,14.67
2023-03-05T17:55:26.451Z,15.03
2023-03-05T17:57:58.717Z,13.83
2023-03-05T18:00:32.804Z,13.73
2023-03-05T18:03:02.739Z,13.30
2023-03-05T18:05:36.883Z,12.90
2023-03-05T18:08:07.396Z,14.57
2023-03-05T18:10:37.638Z,13.47
2023-03-05T18:13:07.750Z,13.37
2023-03-05T18:15:48.015Z,13.83
2023-03-05T18:18:20.032Z,13.83
2023-03-05T18:20:50.797Z,13.30
2023-03-05T18:23:20.975Z,13.77
2023-03-05T18:25:51.224Z,12.80
2023-03-05T18:28:21.760Z,14.13
2023-03-05T18:30:53.595Z,11.80
2023-03-05T18:33:25.935Z,12.87
2023-03-05T18:35:55.918Z,13.67
2023-03-05T18:38:28.203Z,12.77
2023-03-05T18:40:59.607Z,10.60
2023-03-05T18:43:30.417Z,11.53
2023-03-05T18:46:05.572Z,13.00
2023-03-05T18:48:37.109Z,10.90
2023-03-05T18:51:07.250Z,12.63
2023-03-05T18:53:43.598Z,11.90
2023-03-05T18:56:14.683Z,12.10
2023-03-05T18:58:45.560Z,11.17
2023-03-05T19:01:21.400Z,16.30
2023-03-05T19:03:54.351Z,17.33
2023-03-05T19:06:24.723Z,17.73
2023-03-05T19:08:59.479Z,17.47
2023-03-05T19:11:29.626Z,16.13
2023-03-05T19:13:59.946Z,15.13
2023-03-05T19:16:38.878Z,15.17
2023-03-05T19:19:15.999Z,13.70
2023-03-05T19:21:49.323Z,12.93
2023-03-05T19:24:20.391Z,12.33
2023-03-05T19:26:55.973Z,12.07
2023-03-05T19:29:26.821Z,10.63
2023-03-05T19:31:58.973Z,11.57
2023-03-05T19:34:29.084Z,11.70
2023-03-05T19:36:59.989Z,10.80
2023-03-05T19:39:30.482Z,10.70
2023-03-05T19:42:01.154Z,12.20
2023-03-05T19:44:34.284Z,11.53
2023-03-05T19:47:05.299Z,11.23
2023-03-05T19:49:36.775Z,10.87
2023-03-05T19:52:07.234Z,10.97
2023-03-05T19:54:40.943Z,9.80
2023-03-05T19:57:10.634Z,10.27
2023-03-05T19:59:41.208Z,9.93
2023-03-05T20:02:19.562Z,9.97
2023-03-05T20:04:52.109Z,10.13
2023-03-05T20:07:23.428Z,10.37
2023-03-05T20:09:55.875Z,9.80
2023-03-05T20:12:26.856Z,10.37
2023-03-05T20:14:56.888Z,10.40
2023-03-05T20:17:28.272Z,10.20
2023-03-05T20:20:00.259Z,10.07
2023-03-05T20:22:30.646Z,9.67
2023-03-05T20:25:02.021Z,9.83
2023-03-05T20:27:31.623Z,8.70
2023-03-05T20:30:01.628Z,10.90
2023-03-05T20:32:33.868Z,9.87
2023-03-05T20:35:06.870Z,10.37
2023-03-05T20:37:40.659Z,9.63
2023-03-05T20:40:11.701Z,9.63
2023-03-05T20:42:42.294Z,9.40
2023-03-05T20:45:12.649Z,10.53
2023-03-05T20:47:46.667Z,9.17
2023-03-05T20:50:16.888Z,9.07
2023-03-05T20:52:47.185Z,8.77
2023-03-05T20:55:17.358Z,8.33
2023-03-05T20:57:46.848Z,8.40
2023-03-05T21:00:24.110Z,8.83
2023-03-05T21:02:56.624Z,9.10
2023-03-05T21:05:28.226Z,8.50
2023-03-05T21:07:57.753Z,7.83
2023-03-05T21:10:30.067Z,9.33
2023-03-05T21:13:01.004Z,8.73
2023-03-05T21:15:33.632Z,7.97
2023-03-05T21:18:04.501Z,8.33
2023-03-05T21:20:34.279Z,8.70
2023-03-05T21:23:04.263Z,8.00
2023-03-05T21:25:35.994Z,8.00
2023-03-05T21:28:08.797Z,7.07
2023-03-05T21:30:40.275Z,7.67
2023-03-05T21:33:12.699Z,8.33
2023-03-05T21:35:41.748Z,8.20
2023-03-05T21:38:11.735Z,7.93
2023-03-05T21:40:43.999Z,7.50
2023-03-05T21:43:14.106Z,8.03
2023-03-05T21:45:43.220Z,8.27
2023-03-05T21:48:13.241Z,8.03
2023-03-05T21:50:43.037Z,9.03
2023-03-05T21:53:12.112Z,7.93
2023-03-05T21:55:46.559Z,7.47
2023-03-05T21:58:15.021Z,7.87
2023-03-05T22:00:43.171Z,8.93
2023-03-05T22:03:12.726Z,8.00
2023-03-05T22:05:43.407Z,7.07
2023-03-05T22:08:11.520Z,8.37
2023-03-05T22:10:41.998Z,7.37
2023-03-05T22:13:13.992Z,7.40
2023-03-05T22:15:47.869Z,6.57
2023-03-05T22:18:21.401Z,8.07
2023-03-05T22:20:50.484Z,7.73
2023-03-05T22:23:22.230Z,7.10
2023-03-05T22:25:57.495Z,7.13
2023-03-05T22:28:26.532Z,8.17
2023-03-05T22:30:55.664Z,6.90
2023-03-05T22:33:25.455Z,7.27
2023-03-05T22:35:53.650Z,7.70
2023-03-05T22:38:22.487Z,7.67
2023-03-05T22:40:51.226Z,7.67
2023-03-05T22:43:19.977Z,7.43
2023-03-05T22:45:48.259Z,7.70
2023-03-05T22:48:16.730Z,7.47
2023-03-05T22:50:46.291Z,7.40
2023-03-05T22:53:14.454Z,6.90
2023-03-05T22:55:43.791Z,7.93
2023-03-05T22:58:11.893Z,7.60
2023-03-05T23:00:40.034Z,7.03
2023-03-05T23:03:08.259Z,7.10
2023-03-05T23:05:36.807Z,7.00
2023-03-05T23:08:06.860Z,7.17
2023-03-05T23:10:35.142Z,6.40
2023-03-05T23:13:03.335Z,7.60
2023-03-05T23:15:33.170Z,6.53
2023-03-05T23:18:01.446Z,7.37
2023-03-05T23:20:32.794Z,7.40
2023-03-05T23:23:01.656Z,7.10
2023-03-05T23:25:33.389Z,6.73
2023-03-05T23:28:02.597Z,6.53
2023-03-05T23:30:31.665Z,6.37
2023-03-05T23:33:04.166Z,6.60
2023-03-05T23:35:33.948Z,6.50
2023-03-05T23:38:03.087Z,5.70
2023-03-05T23:40:34.539Z,5.90
2023-03-05T23:43:02.767Z,6.27
2023-03-05T23:45:31.497Z,6.17
2023-03-05T23:47:59.912Z,5.77
2023-03-05T23:50:30.364Z,6.70
2023-03-05T23:53:01.370Z,6.40
2023-03-05T23:55:34.161Z,6.87
2023-03-05T23:58:02.445Z,7.20
